Time;durP1;ratioP1;P1;durP2;ratioP2;P2;SDS_P1;SDS_P2;PMS_P1;PMS_P2;Temp;Humidity;BMP_temperature;BMP_pressure;BME280_temperature;BME280_humidity;BME280_pressure;Samples;Min_cycle;Max_cycle;Signal;HPM_P1;HPM_P2
2022/12/07 00:00:55;;;;;;;1.33;1.23;;;3.40;99.90;2.30;95914.00;;;;5096684;28;20649;-65
2022/12/07 00:03:22;;;;;;;1.27;1.27;;;3.30;99.90;2.40;95911.00;;;;5096058;28;20191;-64
2022/12/07 00:05:49;;;;;;;1.40;1.40;;;3.40;99.90;2.40;95910.00;;;;5095216;28;20218;-66
2022/12/07 00:08:16;;;;;;;1.47;1.43;;;3.40;99.90;2.40;95913.00;;;;5093189;28;20269;-66
2022/12/07 00:10:43;;;;;;;1.00;1.00;;;3.40;99.90;2.40;95909.00;;;;5093242;28;20193;-66
2022/12/07 00:13:16;;;;;;;2.77;1.53;;;3.40;99.90;2.40;95904.00;;;;5093546;28;20194;-66
2022/12/07 00:15:43;;;;;;;2.27;2.07;;;3.40;99.90;2.50;95904.00;;;;5119658;22;20240;-53
2022/12/07 00:18:11;;;;;;;1.23;1.23;;;3.50;99.90;2.50;95910.00;;;;5113359;28;20190;-55
2022/12/07 00:20:38;;;;;;;2.20;1.80;;;3.50;99.90;2.50;95913.00;;;;5113300;28;20239;-54
2022/12/07 00:23:05;;;;;;;1.70;1.60;;;3.50;99.90;2.40;95905.00;;;;5113348;28;20187;-54
2022/12/07 00:25:32;;;;;;;1.10;1.03;;;3.40;99.90;2.40;95907.00;;;;5114077;28;20562;-54
2022/12/07 00:27:59;;;;;;;1.20;1.10;;;3.40;99.90;2.50;95912.00;;;;5113285;28;20194;-54
2022/12/07 00:30:27;;;;;;;1.73;1.63;;;3.40;99.90;2.50;95904.00;;;;5095143;28;20244;-54
2022/12/07 00:32:54;;;;;;;2.23;1.40;;;3.50;99.90;2.50;95893.00;;;;5113186;28;20183;-53
2022/12/07 00:35:22;;;;;;;1.07;1.03;;;3.50;99.90;2.50;95899.00;;;;5113623;28;20210;-54
2022/12/07 00:37:49;;;;;;;1.00;1.00;;;3.50;99.90;2.60;95895.00;;;;5113801;28;20182;-53
2022/12/07 00:40:16;;;;;;;1.00;1.00;;;3.60;99.90;2.60;95908.00;;;;5113246;28;20201;-54
2022/12/07 00:42:43;;;;;;;1.07;1.07;;;3.60;99.90;2.60;95910.00;;;;5113141;28;20194;-54
2022/12/07 00:45:10;;;;;;;0.90;0.90;;;3.60;99.90;2.50;95905.00;;;;5113134;28;20214;-54
2022/12/07 00:47:39;;;;;;;1.07;1.07;;;3.50;99.90;2.50;95904.00;;;;5113272;28;20243;-54
2022/12/07 00:50:07;;;;;;;1.27;1.17;;;3.50;99.90;2.50;95909.00;;;;5112973;28;20218;-53
2022/12/07 00:52:34;;;;;;;1.17;1.17;;;3.50;99.90;2.50;95902.00;;;;5113017;28;20267;-54
2022/12/07 00:55:01;;;;;;;1.63;1.53;;;3.50;99.90;2.40;95899.00;;;;5112901;28;20210;-54
2022/12/07 00:57:31;;;;;;;1.63;1.53;;;3.40;99.90;2.40;95888.00;;;;5094615;28;20195;-54
2022/12/07 01:00:00;;;;;;;1.13;1.13;;;3.40;99.90;2.40;95906.00;;;;5113241;28;20243;-53
2022/12/07 01:02:27;;;;;;;1.77;1.67;;;3.40;99.90;2.70;95892.00;;;;5112967;28;20222;-53
2022/12/07 01:04:55;;;;;;;3.37;2.27;;;3.50;99.90;2.60;95909.00;;;;5113479;28;20210;-54
2022/12/07 01:07:22;;;;;;;1.40;1.30;;;3.50;99.90;2.50;95896.00;;;;5112877;28;20182;-54
2022/12/07 01:09:49;;;;;;;1.37;1.33;;;3.50;99.90;2.50;95907.00;;;;5112816;28;20213;-54
2022/12/07 01:12:16;;;;;;;1.20;1.20;;;3.40;99.90;2.50;95902.00;;;;5112863;28;20652;-53
2022/12/07 01:14:43;;;;;;;1.07;1.07;;;3.40;99.90;2.40;95901.00;;;;5115869;28;20214;-54
2022/12/07 01:17:10;;;;;;;3.70;1.53;;;3.40;99.90;2.60;95906.00;;;;5116580;28;20336;-54
2022/12/07 01:19:37;;;;;;;0.87;0.87;;;3.50;99.90;2.50;95910.00;;;;5116528;28;20244;-54
2022/12/07 01:22:06;;;;;;;0.77;0.77;;;3.50;99.90;2.50;95913.00;;;;5116533;28;20190;-54
2022/12/07 01:24:33;;;;;;;0.90;0.90;;;3.40;99.90;2.40;95905.00;;;;5116405;28;20206;-55
2022/12/07 01:27:00;;;;;;;1.53;1.43;;;3.40;99.90;2.40;95914.00;;;;5098155;28;20660;-55
2022/12/07 01:29:27;;;;;;;1.03;1.03;;;3.50;99.90;2.50;95908.00;;;;5116429;28;20213;-55
2022/12/07 01:31:54;;;;;;;0.80;0.80;;;3.50;99.90;2.50;95911.00;;;;5116291;28;20186;-54
2022/12/07 01:34:20;;;;;;;1.40;1.40;;;3.40;99.90;2.50;95915.00;;;;5116339;28;20544;-54
2022/12/07 01:36:47;;;;;;;1.13;1.10;;;3.50;99.90;2.50;95917.00;;;;5116117;28;20190;-53
2022/12/07 01:39:16;;;;;;;2.53;1.40;;;3.50;99.90;2.60;95917.00;;;;5116631;28;20209;-54
2022/12/07 01:41:43;;;;;;;1.40;1.30;;;3.50;99.90;2.60;95917.00;;;;5116098;28;20190;-55
2022/12/07 01:44:19;;;;;;;1.77;1.67;;;3.50;99.90;2.60;95917.00;;;;5097624;28;20202;-54
2022/12/07 01:46:48;;;;;;;2.23;1.83;;;3.60;99.90;2.60;95912.00;;;;5116219;28;20186;-54
2022/12/07 01:49:33;;;;;;;1.20;1.20;;;3.60;99.90;2.60;95919.00;;;;5115785;28;20210;-53
2022/12/07 01:52:16;;;;;;;1.00;1.00;;;3.60;99.90;2.60;95926.00;;;;5115916;28;20167;-53
2022/12/07 01:54:48;;;;;;;1.43;1.23;;;3.60;99.90;2.50;95921.00;;;;5115692;28;20686;-54
2022/12/07 01:57:17;;;;;;;1.33;1.33;;;3.60;99.90;2.50;95921.00;;;;5116364;28;20189;-54
2022/12/07 01:59:49;;;;;;;0.83;0.83;;;3.50;99.90;2.50;95922.00;;;;5115776;28;20639;-53
2022/12/07 02:02:24;;;;;;;1.50;1.40;;;3.50;99.90;2.50;95911.00;;;;5115747;28;20622;-53
2022/12/07 02:04:53;;;;;;;1.80;1.70;;;3.50;99.90;2.50;95917.00;;;;5115504;28;20701;-54
2022/12/07 02:07:22;;;;;;;1.50;1.40;;;3.50;99.90;2.50;95916.00;;;;5115754;28;20197;-53
2022/12/07 02:09:50;;;;;;;5.60;2.20;;;3.50;99.90;2.50;95920.00;;;;5115461;28;20217;-53
2022/12/07 02:12:18;;;;;;;1.03;1.03;;;3.50;99.90;2.50;95925.00;;;;5115462;28;20182;-54
2022/12/07 02:14:45;;;;;;;1.27;1.27;;;3.50;99.90;2.50;95928.00;;;;5115701;28;20218;-53
2022/12/07 02:17:22;;;;;;;2.10;1.73;;;3.50;99.90;2.50;95927.00;;;;5115421;28;20181;-53
2022/12/07 02:20:22;;;;;;;1.30;1.30;;;3.50;99.90;2.50;95921.00;;;;5115623;28;20174;-53
2022/12/07 02:23:33;;;;;;;1.23;1.23;;;3.50;99.90;2.50;95917.00;;;;5115532;28;20544;-53
2022/12/07 02:26:31;;;;;;;1.00;1.00;;;3.60;99.90;2.50;95915.00;;;;5115157;28;20206;-54
2022/12/07 02:29:15;;;;;;;1.33;1.33;;;3.50;99.90;2.40;95910.00;;;;5115012;28;20647;-54
2022/12/07 02:32:00;;;;;;;1.20;1.20;;;3.40;99.90;2.30;95916.00;;;;5115373;28;20179;-54
2022/12/07 02:34:42;;;;;;;1.57;1.47;;;3.40;99.90;2.40;95922.00;;;;5114953;28;20210;-54
2022/12/07 02:37:23;;;;;;;1.40;1.30;;;3.40;99.90;2.40;95885.00;;;;5115002;28;20178;-53
2022/12/07 02:39:59;;;;;;;1.40;1.30;;;3.40;99.90;2.40;95914.00;;;;5115418;28;20231;-53
2022/12/07 02:42:35;;;;;;;0.80;0.80;;;3.40;99.90;2.50;95920.00;;;;5115066;28;20225;-53
2022/12/07 02:45:07;;;;;;;1.83;1.73;;;3.40;99.90;2.40;95917.00;;;;5114757;28;20220;-53
2022/12/07 02:47:36;;;;;;;1.23;1.23;;;3.40;99.90;2.30;95915.00;;;;5115093;28;20187;-53
2022/12/07 02:50:06;;;;;;;1.53;1.43;;;3.40;99.90;2.30;95914.00;;;;5114580;28;20205;-52
2022/12/07 02:52:33;;;;;;;0.87;0.87;;;3.40;99.90;2.30;95913.00;;;;5114935;28;20194;-54
2022/12/07 02:55:01;;;;;;;0.70;0.70;;;3.30;99.90;2.20;95909.00;;;;5114878;28;20240;-54
2022/12/07 02:57:46;;;;;;;1.37;1.27;;;3.30;99.90;2.10;95908.00;;;;5115150;28;20636;-54
2022/12/07 03:00:19;;;;;;;1.50;1.40;;;3.20;99.90;2.10;95905.00;;;;5114835;28;20551;-54
2022/12/07 03:03:04;;;;;;;1.53;1.43;;;3.10;99.90;1.90;95896.00;;;;5114841;28;20193;-54
2022/12/07 03:05:54;;;;;;;0.73;0.73;;;3.00;99.90;2.00;95885.00;;;;5114536;28;20214;-54
2022/12/07 03:08:32;;;;;;;0.70;0.70;;;3.10;99.90;2.00;95898.00;;;;5114508;28;20179;-55
2022/12/07 03:11:04;;;;;;;1.00;1.00;;;3.00;99.90;2.10;95896.00;;;;5114598;28;20713;-55
2022/12/07 03:13:40;;;;;;;1.10;1.10;;;3.00;99.90;2.10;95905.00;;;;5114378;28;20227;-54
2022/12/07 03:16:14;;;;;;;0.80;0.80;;;3.10;99.90;2.10;95888.00;;;;5114231;28;20218;-54
2022/12/07 03:18:50;;;;;;;1.77;1.67;;;3.10;99.90;2.20;95894.00;;;;5114524;28;20185;-54
2022/12/07 03:21:24;;;;;;;0.80;0.80;;;3.10;99.90;2.20;95890.00;;;;5114183;28;20193;-54
2022/12/07 03:23:57;;;;;;;0.80;0.80;;;3.20;99.90;2.30;95894.00;;;;5114676;28;20182;-54
2022/12/07 03:26:32;;;;;;;0.70;0.70;;;3.20;99.90;2.30;95887.00;;;;5114409;28;20217;-54
2022/12/07 03:29:07;;;;;;;1.00;1.00;;;3.20;99.90;2.10;95882.00;;;;5114075;28;20182;-54
2022/12/07 03:31:42;;;;;;;1.17;1.17;;;3.10;99.40;2.10;95892.00;;;;5114049;28;20181;-54
2022/12/07 03:34:16;;;;;;;1.10;1.00;;;3.10;99.90;2.20;95891.00;;;;5113899;28;20181;-54
2022/12/07 03:36:51;;;;;;;1.47;1.37;;;3.10;99.90;2.10;95876.00;;;;5113509;28;20189;-54
2022/12/07 03:39:27;;;;;;;1.10;1.10;;;3.00;99.90;2.10;95885.00;;;;5095653;28;20205;-54
2022/12/07 03:41:56;;;;;;;0.93;0.93;;;3.00;99.90;2.00;95891.00;;;;5114185;28;20638;-54
2022/12/07 03:44:25;;;;;;;0.97;0.97;;;3.00;99.90;1.90;95880.00;;;;5114055;28;20186;-54
2022/12/07 03:47:04;;;;;;;1.77;1.13;;;3.00;99.90;2.00;95887.00;;;;5113805;28;20186;-54
2022/12/07 03:49:41;;;;;;;1.23;1.13;;;3.00;99.90;2.00;95891.00;;;;5113992;28;20206;-54
2022/12/07 03:52:23;;;;;;;1.73;1.63;;;3.00;99.90;2.00;95881.00;;;;5114321;28;20227;-54
2022/12/07 03:54:58;;;;;;;1.27;1.27;;;3.00;99.90;2.00;95887.00;;;;5113770;28;20205;-54
2022/12/07 03:57:28;;;;;;;1.30;1.30;;;3.00;99.90;2.10;95890.00;;;;5095442;28;20192;-54
2022/12/07 03:59:57;;;;;;;1.13;1.13;;;3.10;99.90;2.10;95885.00;;;;5113608;28;20198;-54
2022/12/07 04:02:29;;;;;;;0.77;0.77;;;3.10;99.90;2.10;95879.00;;;;5113550;28;20190;-55
2022/12/07 04:04:57;;;;;;;1.17;1.17;;;3.10;99.90;2.10;95888.00;;;;5113529;28;20217;-54
2022/12/07 04:07:24;;;;;;;1.03;0.93;;;3.10;99.90;2.10;95879.00;;;;5113451;28;20182;-55
2022/12/07 04:09:51;;;;;;;1.30;1.30;;;3.10;99.90;2.10;95891.00;;;;5113665;28;20228;-54
2022/12/07 04:12:18;;;;;;;1.27;1.27;;;3.10;99.90;2.10;95877.00;;;;5113747;28;20190;-54
2022/12/07 04:14:45;;;;;;;2.10;2.00;;;3.20;99.90;2.10;95869.00;;;;5114139;28;20275;-54
2022/12/07 04:17:13;;;;;;;1.57;1.47;;;3.20;99.90;2.10;95875.00;;;;5113436;28;20190;-54
2022/12/07 04:19:41;;;;;;;1.53;1.43;;;3.10;99.90;2.10;95883.00;;;;5113394;28;20679;-54
2022/12/07 04:22:09;;;;;;;1.43;1.43;;;3.10;99.90;2.10;95882.00;;;;5113669;28;20656;-54
2022/12/07 04:24:36;;;;;;;1.60;1.57;;;3.10;99.90;2.10;95892.00;;;;5113859;28;20218;-54
2022/12/07 04:27:04;;;;;;;1.10;1.10;;;3.10;99.90;2.10;95885.00;;;;5113351;28;20245;-54
2022/12/07 04:29:31;;;;;;;1.00;1.00;;;3.10;99.90;2.10;95870.00;;;;5113252;28;20194;-54
2022/12/07 04:31:58;;;;;;;1.73;1.27;;;3.10;99.90;2.00;95887.00;;;;5113551;28;20194;-54
2022/12/07 04:34:25;;;;;;;3.90;1.63;;;3.00;99.90;1.90;95866.00;;;;5113511;28;20202;-54
2022/12/07 04:36:53;;;;;;;1.57;1.47;;;3.00;99.90;1.70;95875.00;;;;5113296;28;20189;-54
2022/12/07 04:39:24;;;;;;;1.00;1.00;;;2.80;99.90;1.60;95869.00;;;;5113187;28;20186;-54
2022/12/07 04:41:52;;;;;;;1.10;1.10;;;2.80;99.90;1.70;95861.00;;;;5113540;28;20182;-53
2022/12/07 04:44:20;;;;;;;1.97;1.87;;;2.70;99.90;1.70;95852.00;;;;5113313;28;20546;-54
2022/12/07 04:46:48;;;;;;;0.77;0.77;;;2.70;99.90;1.80;95835.00;;;;5113113;28;20243;-53
2022/12/07 04:49:16;;;;;;;1.37;1.27;;;2.90;99.30;1.60;95833.00;;;;5115726;28;20688;-54
2022/12/07 04:51:44;;;;;;;1.93;1.83;;;2.70;98.30;1.50;95835.00;;;;5098709;28;20232;-53
2022/12/07 04:54:13;;;;;;;1.10;1.10;;;2.60;98.70;1.50;95837.00;;;;5116778;28;20186;-54
2022/12/07 04:56:41;;;;;;;1.00;1.00;;;2.60;98.60;1.30;95839.00;;;;5117233;28;20569;-53
2022/12/07 04:59:08;;;;;;;1.73;1.50;;;2.50;98.90;1.20;95830.00;;;;5117333;28;20194;-54
2022/12/07 05:01:35;;;;;;;1.77;1.30;;;2.30;99.30;1.20;95848.00;;;;5117074;28;20194;-54
2022/12/07 05:04:03;;;;;;;1.60;1.37;;;2.30;99.50;1.20;95841.00;;;;5116712;28;20193;-54
2022/12/07 05:06:30;;;;;;;1.70;1.60;;;2.30;99.30;1.20;95832.00;;;;5116631;28;20214;-54
2022/12/07 05:08:57;;;;;;;2.13;2.03;;;2.30;99.20;1.10;95831.00;;;;5117445;28;20537;-54
2022/12/07 05:11:41;;;;;;;1.10;1.10;;;2.20;99.10;1.10;95827.00;;;;5116667;28;20210;-54
2022/12/07 05:14:13;;;;;;;0.83;0.83;;;2.20;98.80;1.10;95835.00;;;;5116833;28;20200;-54
2022/12/07 05:16:41;;;;;;;1.03;1.03;;;2.10;98.60;1.10;95834.00;;;;5116486;28;20215;-54
2022/12/07 05:19:10;;;;;;;1.67;1.57;;;2.20;98.20;1.00;95846.00;;;;5116814;28;20190;-54
2022/12/07 05:21:38;;;;;;;1.53;1.43;;;2.10;97.70;1.10;95847.00;;;;5116468;28;20280;-54
2022/12/07 05:24:07;;;;;;;1.10;1.10;;;2.10;97.50;1.10;95843.00;;;;5116387;28;20193;-54
2022/12/07 05:26:35;;;;;;;1.27;1.10;;;2.10;97.40;1.00;95839.00;;;;5116352;28;20202;-54
2022/12/07 05:29:03;;;;;;;1.50;1.40;;;2.10;97.20;1.00;95850.00;;;;5116283;28;20240;-54
2022/12/07 05:31:30;;;;;;;1.30;1.30;;;2.10;97.20;1.00;95849.00;;;;5116187;28;20214;-54
2022/12/07 05:33:57;;;;;;;1.00;1.00;;;2.00;97.20;1.00;95853.00;;;;5116176;28;20190;-53
2022/12/07 05:36:25;;;;;;;1.63;1.53;;;2.10;96.70;0.90;95855.00;;;;5116086;28;20214;-54
2022/12/07 05:38:52;;;;;;;1.40;1.30;;;2.00;96.80;0.80;95857.00;;;;5116360;28;20185;-54
2022/12/07 05:44:06;;;;;;;1.43;1.37;;;1.90;98.00;0.80;95859.00;;;;5115878;28;20181;-54
2022/12/07 05:46:34;;;;;;;0.90;0.90;;;1.90;98.50;0.80;95861.00;;;;5115964;28;20194;-54
2022/12/07 05:49:02;;;;;;;0.90;0.90;;;1.90;98.90;0.90;95859.00;;;;5115921;28;20242;-54
2022/12/07 05:51:29;;;;;;;1.53;1.40;;;1.90;99.20;0.80;95857.00;;;;5115844;28;20225;-54
2022/12/07 05:53:56;;;;;;;1.77;1.67;;;1.90;99.40;0.80;95858.00;;;;5115783;28;20242;-53
2022/12/07 05:56:24;;;;;;;1.70;1.60;;;1.90;99.60;0.80;95865.00;;;;5115681;28;20205;-54
2022/12/07 06:01:37;;;;;;;1.77;1.67;;;1.80;99.90;0.80;95864.00;;;;5115642;28;20330;-54
2022/12/07 06:04:04;;;;;;;1.57;1.47;;;1.80;99.90;0.80;95862.00;;;;5115641;28;20190;-53
2022/12/07 06:06:31;;;;;;;1.33;1.33;;;1.90;99.90;0.80;95854.00;;;;5115541;28;20212;-54
2022/12/07 06:08:58;;;;;;;1.63;1.53;;;1.90;99.80;0.70;95855.00;;;;5115751;28;20215;-53
2022/12/07 06:14:10;;;;;;;1.10;1.10;;;1.80;99.50;0.80;95866.00;;;;5115828;28;20217;-53
2022/12/07 06:16:38;;;;;;;1.30;1.30;;;1.80;99.90;0.70;95842.00;;;;5115584;28;20626;-53
2022/12/07 06:19:05;;;;;;;1.57;1.47;;;1.80;99.60;0.80;95873.00;;;;5115804;28;20189;-54
2022/12/07 06:21:32;;;;;;;1.20;1.20;;;1.90;99.90;0.80;95869.00;;;;5115372;28;20208;-53
2022/12/07 06:23:59;;;;;;;3.60;1.67;;;1.90;99.90;0.90;95877.00;;;;5115224;28;20197;-53
2022/12/07 06:26:26;;;;;;;1.37;1.37;;;1.90;99.80;0.90;95880.00;;;;5115131;28;20282;-53
2022/12/07 06:28:54;;;;;;;2.23;2.03;;;1.90;99.60;0.80;95884.00;;;;5096990;28;20197;-54
2022/12/07 06:31:21;;;;;;;1.50;1.50;;;1.90;99.50;0.90;95878.00;;;;5115019;28;20217;-53
2022/12/07 06:33:49;;;;;;;1.37;1.37;;;1.90;99.50;0.90;95880.00;;;;5115374;28;20193;-53
2022/12/07 06:36:16;;;;;;;2.07;1.97;;;2.00;99.50;0.90;95879.00;;;;5115177;28;20549;-54
2022/12/07 06:38:43;;;;;;;3.70;1.63;;;2.00;99.20;0.90;95885.00;;;;5114925;28;20200;-59
2022/12/07 06:41:10;;;;;;;2.03;1.93;;;2.00;99.00;0.80;95874.00;;;;5114843;28;20201;-53
2022/12/07 06:43:38;;;;;;;2.10;1.90;;;1.90;98.60;0.80;95888.00;;;;5114800;28;20247;-53
2022/12/07 06:46:05;;;;;;;0.90;0.90;;;1.90;98.90;0.80;95885.00;;;;5114626;28;20231;-54
2022/12/07 06:48:32;;;;;;;3.40;2.17;;;1.90;99.00;0.80;95881.00;;;;5114743;28;20194;-54
2022/12/07 06:51:00;;;;;;;2.23;1.13;;;1.90;99.10;0.90;95872.00;;;;5114623;28;20231;-54
2022/12/07 06:53:27;;;;;;;1.50;1.40;;;1.90;99.30;0.90;95882.00;;;;5114624;28;20194;-54
2022/12/07 06:55:55;;;;;;;1.97;1.80;;;2.00;98.80;0.90;95879.00;;;;5114612;28;20217;-54
2022/12/07 06:58:22;;;;;;;1.03;1.03;;;2.00;98.80;1.00;95847.00;;;;5114547;28;20192;-54
2022/12/07 07:00:50;;;;;;;1.70;1.63;;;2.00;98.70;1.00;95851.00;;;;5114278;28;20189;-54
2022/12/07 07:03:17;;;;;;;5.87;3.03;;;2.00;98.70;1.00;95878.00;;;;5114412;28;20182;-56
2022/12/07 07:05:45;;;;;;;2.97;2.30;;;2.10;98.50;1.10;95884.00;;;;5114458;28;20547;-54
2022/12/07 07:08:14;;;;;;;1.30;1.30;;;2.10;98.50;1.10;95878.00;;;;5114420;28;20190;-54
2022/12/07 07:10:42;;;;;;;1.17;1.17;;;2.10;98.00;1.10;95884.00;;;;5114135;28;20216;-54
2022/12/07 07:13:09;;;;;;;1.20;1.20;;;2.10;97.70;1.10;95880.00;;;;5114559;28;20189;-54
2022/12/07 07:15:39;;;;;;;2.20;2.00;;;2.20;97.40;1.20;95879.00;;;;5114157;28;20217;-54
2022/12/07 07:18:06;;;;;;;1.23;1.23;;;2.20;97.10;1.20;95879.00;;;;5114704;28;20196;-55
2022/12/07 07:20:33;;;;;;;0.97;0.97;;;2.20;96.80;1.10;95883.00;;;;5114055;28;20198;-54
2022/12/07 07:23:00;;;;;;;0.93;0.93;;;2.10;95.80;1.10;95879.00;;;;5114609;28;20212;-54
2022/12/07 07:25:29;;;;;;;1.20;1.20;;;2.10;95.60;1.20;95879.00;;;;5114133;28;20679;-54
2022/12/07 07:27:56;;;;;;;1.20;1.20;;;2.20;95.80;1.20;95878.00;;;;5114087;28;20189;-55
2022/12/07 07:30:23;;;;;;;1.80;1.70;;;2.30;95.60;1.20;95881.00;;;;5114228;28;20221;-55
2022/12/07 07:32:50;;;;;;;1.43;1.33;;;2.20;95.10;1.20;95888.00;;;;5113958;28;20225;-54
2022/12/07 07:35:19;;;;;;;1.50;1.47;;;2.20;94.60;1.20;95885.00;;;;5114088;28;20205;-54
2022/12/07 07:37:46;;;;;;;1.83;1.73;;;2.20;93.80;1.10;95887.00;;;;5113703;28;20204;-55
2022/12/07 07:40:13;;;;;;;1.77;1.37;;;2.20;93.40;1.10;95880.00;;;;5113856;28;20181;-55
2022/12/07 07:42:41;;;;;;;1.47;1.43;;;2.10;92.70;1.20;95893.00;;;;5113677;28;20234;-55
2022/12/07 07:45:10;;;;;;;1.00;1.00;;;2.20;93.60;1.20;95891.00;;;;5113575;28;20216;-55
2022/12/07 07:47:37;;;;;;;2.10;1.73;;;2.20;93.60;1.40;95899.00;;;;5113731;28;20276;-55
2022/12/07 07:50:06;;;;;;;0.70;0.70;;;2.30;92.70;1.40;95887.00;;;;5113609;28;20210;-54
2022/12/07 07:52:33;;;;;;;0.93;0.93;;;2.40;91.40;1.50;95890.00;;;;5113513;28;20296;-54
2022/12/07 07:55:00;;;;;;;1.57;1.47;;;2.40;89.70;1.50;95900.00;;;;5113665;28;20205;-55
2022/12/07 07:57:27;;;;;;;4.47;1.93;;;2.50;89.50;1.50;95882.00;;;;5113669;28;20550;-57
2022/12/07 07:59:55;;;;;;;1.37;1.37;;;2.40;88.90;1.30;95890.00;;;;5113675;28;20204;-56
2022/12/07 08:02:24;;;;;;;0.80;0.80;;;2.40;88.70;1.30;95900.00;;;;5113444;28;20682;-55
2022/12/07 08:04:51;;;;;;;0.80;0.80;;;2.30;90.40;1.40;95886.00;;;;5113444;28;20243;-55
2022/12/07 08:07:18;;;;;;;1.07;1.07;;;2.40;90.40;1.70;95895.00;;;;5113318;28;20190;-55
2022/12/07 08:09:45;;;;;;;2.23;2.10;;;2.60;93.00;2.10;95893.00;;;;5113355;28;20213;-55
2022/12/07 08:12:12;;;;;;;1.00;1.00;;;2.90;95.20;2.40;95892.00;;;;5113296;28;20576;-54
2022/12/07 08:14:39;;;;;;;0.97;0.97;;;3.10;95.80;2.20;95895.00;;;;5113165;28;20687;-55
2022/12/07 08:17:08;;;;;;;1.43;1.40;;;3.20;92.50;2.10;95899.00;;;;5113713;28;20540;-55
2022/12/07 08:19:35;;;;;;;1.07;1.07;;;3.20;89.80;2.00;95896.00;;;;5113469;28;20197;-55
2022/12/07 08:22:02;;;;;;;0.90;0.90;;;3.00;88.00;1.90;95902.00;;;;5114095;28;20198;-54
2022/12/07 08:24:29;;;;;;;1.20;1.20;;;3.00;87.20;1.90;95906.00;;;;5118066;28;20204;-55
2022/12/07 08:26:56;;;;;;;1.30;1.30;;;2.80;85.30;1.80;95904.00;;;;5117542;28;20197;-54
2022/12/07 08:29:23;;;;;;;0.83;0.83;;;2.80;86.60;1.60;95905.00;;;;5117504;28;20190;-54
2022/12/07 08:31:50;;;;;;;1.00;1.00;;;2.70;86.90;1.60;95899.00;;;;5117670;28;20579;-55
2022/12/07 08:34:19;;;;;;;2.63;2.37;;;2.60;87.30;1.60;95899.00;;;;5117577;28;20548;-55
2022/12/07 08:36:46;;;;;;;1.83;1.73;;;2.60;87.70;1.70;95901.00;;;;5117459;28;20185;-54
2022/12/07 08:39:13;;;;;;;4.57;1.43;;;2.70;87.00;1.70;95896.00;;;;5098851;28;20655;-54
2022/12/07 08:41:40;;;;;;;1.73;1.63;;;2.70;86.10;1.70;95900.00;;;;5117304;28;20194;-54
2022/12/07 08:44:07;;;;;;;1.20;1.13;;;2.60;86.80;1.80;95890.00;;;;5098977;28;20197;-55
2022/12/07 08:46:41;;;;;;;1.17;1.17;;;2.70;87.30;1.80;95885.00;;;;5117159;28;20191;-55
2022/12/07 08:49:13;;;;;;;1.10;1.10;;;2.70;86.60;1.90;95903.00;;;;5117455;28;20620;-54
2022/12/07 08:51:42;;;;;;;1.60;1.50;;;2.80;86.20;1.90;95900.00;;;;5117324;28;20274;-54
2022/12/07 08:54:17;;;;;;;1.03;1.03;;;2.90;86.80;2.10;95906.00;;;;5116965;28;20196;-55
2022/12/07 08:56:45;;;;;;;1.23;1.23;;;2.90;86.70;1.80;95914.00;;;;5117296;28;20184;-54
2022/12/07 08:59:16;;;;;;;1.27;1.27;;;2.90;85.60;2.10;95897.00;;;;5116895;28;20197;-55
2022/12/07 09:01:43;;;;;;;0.80;0.80;;;2.90;86.10;1.80;95901.00;;;;5116977;28;20192;-54
2022/12/07 09:04:10;;;;;;;0.80;0.80;;;2.80;86.40;2.00;95898.00;;;;5116809;28;20193;-55
2022/12/07 09:06:38;;;;;;;0.70;0.70;;;2.90;87.60;2.10;95898.00;;;;5117159;28;20547;-54
2022/12/07 09:09:09;;;;;;;1.57;1.47;;;3.00;87.80;2.20;95896.00;;;;5116743;28;20207;-54
2022/12/07 09:11:36;;;;;;;0.80;0.80;;;3.10;87.10;2.30;95895.00;;;;5116978;28;20205;-54
2022/12/07 09:14:03;;;;;;;1.17;1.07;;;3.20;86.90;2.30;95895.00;;;;5116764;28;20198;-54
2022/12/07 09:16:30;;;;;;;1.23;1.23;;;3.10;85.70;2.40;95894.00;;;;5115685;28;20721;-54
2022/12/07 09:18:57;;;;;;;1.10;1.10;;;3.30;85.80;2.50;95890.00;;;;5116603;28;20189;-54
2022/12/07 09:21:25;;;;;;;0.70;0.70;;;3.40;86.50;2.40;95891.00;;;;5116603;28;20189;-54
2022/12/07 09:23:52;;;;;;;1.07;1.07;;;3.30;86.50;2.50;95893.00;;;;5117117;28;20197;-54
2022/12/07 09:26:20;;;;;;;1.30;1.27;;;3.40;86.60;2.60;95896.00;;;;5116484;28;20210;-54
2022/12/07 09:28:47;;;;;;;1.10;1.10;;;3.50;86.80;2.60;95903.00;;;;5098206;28;20204;-55
2022/12/07 09:31:14;;;;;;;2.10;1.10;;;3.50;86.10;2.60;95895.00;;;;5116316;28;20230;-54
2022/12/07 09:33:42;;;;;;;1.63;1.53;;;3.60;85.60;2.50;95904.00;;;;5097261;28;20296;-54
2022/12/07 09:36:10;;;;;;;1.23;1.23;;;3.50;84.20;2.70;95894.00;;;;5116480;28;20202;-54
2022/12/07 09:38:37;;;;;;;2.00;1.90;;;3.60;86.30;2.50;95899.00;;;;5116248;28;20225;-54
2022/12/07 09:41:07;;;;;;;0.77;0.77;;;3.50;85.60;2.60;95887.00;;;;5116228;28;20186;-54
2022/12/07 09:43:39;;;;;;;1.20;1.20;;;3.60;85.90;2.60;95891.00;;;;5116218;28;20178;-54
2022/12/07 09:46:07;;;;;;;0.67;0.67;;;3.60;85.60;2.60;95892.00;;;;5116167;28;20296;-54
2022/12/07 09:48:38;;;;;;;1.07;1.07;;;3.60;86.50;2.80;95891.00;;;;5116376;28;20654;-54
2022/12/07 09:51:17;;;;;;;0.60;0.60;;;3.70;86.70;3.00;95885.00;;;;5116151;28;20267;-54
2022/12/07 09:53:46;;;;;;;0.80;0.80;;;3.90;85.00;3.00;95877.00;;;;5116059;28;20178;-54
2022/12/07 09:56:14;;;;;;;1.43;1.43;;;3.90;85.10;3.20;95887.00;;;;5115852;28;20217;-54
2022/12/07 09:58:44;;;;;;;0.90;0.90;;;4.00;85.90;3.00;95880.00;;;;5115807;28;20190;-55
2022/12/07 10:01:15;;;;;;;0.83;0.83;;;4.00;83.70;2.90;95871.00;;;;5116243;28;20190;-53
2022/12/07 10:03:51;;;;;;;0.70;0.70;;;3.90;84.70;3.10;95875.00;;;;5116032;28;20185;-54
2022/12/07 10:06:19;;;;;;;0.97;0.97;;;4.00;84.90;3.20;95875.00;;;;5116188;28;20202;-54
2022/12/07 10:08:46;;;;;;;0.80;0.80;;;4.10;85.10;3.00;95875.00;;;;5115672;28;20655;-54
2022/12/07 10:11:15;;;;;;;1.63;1.53;;;4.00;84.60;3.00;95878.00;;;;5115866;28;20210;-54
2022/12/07 10:13:48;;;;;;;0.97;0.97;;;4.00;84.90;3.20;95873.00;;;;5115580;28;20195;-54
2022/12/07 10:16:36;;;;;;;0.70;0.70;;;4.10;85.40;3.40;95871.00;;;;5115405;28;20253;-54
2022/12/07 10:19:23;;;;;;;0.73;0.73;;;4.20;84.20;3.60;95873.00;;;;5115518;28;20193;-54
2022/12/07 10:22:11;;;;;;;0.80;0.80;;;4.40;84.20;3.60;95869.00;;;;5116049;28;20177;-55
2022/12/07 10:24:42;;;;;;;1.03;1.03;;;4.50;83.60;3.80;95861.00;;;;5115655;28;20201;-55
2022/12/07 10:27:21;;;;;;;1.10;1.10;;;4.60;84.50;4.00;95852.00;;;;5115306;28;20189;-54
2022/12/07 10:29:53;;;;;;;1.20;1.20;;;4.70;84.20;4.10;95855.00;;;;5115551;28;20179;-54
2022/12/07 10:32:33;;;;;;;1.07;1.07;;;4.90;83.90;3.80;95859.00;;;;5115455;28;20268;-54
2022/12/07 10:35:23;;;;;;;0.60;0.60;;;4.80;81.60;3.80;95864.00;;;;5115160;28;20209;-54
2022/12/07 10:37:52;;;;;;;0.63;0.63;;;4.70;80.60;3.90;95859.00;;;;5115179;28;20186;-54
2022/12/07 10:40:37;;;;;;;1.37;1.27;;;4.80;82.20;4.10;95852.00;;;;5115295;28;20186;-56
2022/12/07 10:43:19;;;;;;;0.80;0.80;;;4.90;82.10;4.10;95854.00;;;;5115045;28;20187;-54
2022/12/07 10:46:28;;;;;;;0.80;0.80;;;4.90;80.80;4.20;95871.00;;;;5113829;28;20202;-54
2022/12/07 10:49:09;;;;;;;1.77;0.87;;;5.00;81.60;3.90;95864.00;;;;5115439;28;20609;-54
2022/12/07 10:51:48;;;;;;;1.50;1.40;;;4.90;79.90;4.00;95853.00;;;;5115000;28;20205;-54
2022/12/07 10:54:34;;;;;;;1.03;0.97;;;4.90;81.60;4.20;95855.00;;;;5114820;28;20170;-55
2022/12/07 10:57:23;;;;;;;1.00;1.00;;;5.00;81.60;4.20;95841.00;;;;5114714;28;20190;-54
2022/12/07 11:00:09;;;;;;;0.67;0.67;;;5.00;80.50;4.30;95845.00;;;;5114614;28;20556;-54
2022/12/07 11:03:16;;;;;;;0.83;0.83;;;5.20;79.80;3.80;95840.00;;;;5114794;28;20678;-54
2022/12/07 11:05:54;;;;;;;1.70;1.30;;;4.80;81.20;4.10;95835.00;;;;5114440;28;20334;-54
2022/12/07 11:08:45;;;;;;;0.60;0.60;;;4.90;82.50;4.10;95833.00;;;;5114482;28;20181;-54
2022/12/07 11:11:21;;;;;;;0.60;0.60;;;4.90;81.30;4.40;95822.00;;;;5114262;28;20272;-55
2022/12/07 11:14:01;;;;;;;0.93;0.93;;;5.10;82.00;4.30;95840.00;;;;5114977;28;20196;-54
2022/12/07 11:16:45;;;;;;;1.60;1.33;;;5.10;81.50;4.30;95837.00;;;;5114223;28;20213;-54
2022/12/07 11:19:35;;;;;;;0.60;0.60;;;5.20;81.80;4.20;95830.00;;;;5114576;28;20522;-54
2022/12/07 11:22:10;;;;;;;0.70;0.70;;;5.10;82.00;4.00;95830.00;;;;5114263;28;20210;-54
2022/12/07 11:24:50;;;;;;;0.70;0.70;;;5.00;81.60;3.80;95841.00;;;;5114341;28;20205;-55
2022/12/07 11:27:31;;;;;;;0.70;0.70;;;4.80;83.60;3.60;95824.00;;;;5114399;28;20186;-54
2022/12/07 11:30:17;;;;;;;0.60;0.60;;;4.60;85.10;3.60;95828.00;;;;5114166;28;20175;-54
2022/12/07 11:33:16;;;;;;;0.97;0.97;;;4.50;86.30;3.60;95820.00;;;;5114173;28;20198;-54
2022/12/07 11:36:02;;;;;;;0.70;0.70;;;4.50;86.80;3.70;95814.00;;;;5114030;28;20236;-54